sensor_id;sensor_type;location;lat;lon;timestamp;P1;durP1;ratioP1;P2;durP2;ratioP2
54835;SDS011;43486;43.574;1.476;2024-01-10T00:01:13;15.60;;;12.13;;
54835;SDS011;43486;43.574;1.476;2024-01-10T00:03:39;20.65;;;12.13;;
54835;SDS011;43486;43.574;1.476;2024-01-10T00:06:04;15.75;;;11.05;;
54835;SDS011;43486;43.574;1.476;2024-01-10T00:08:30;17.35;;;10.63;;
54835;SDS011;43486;43.574;1.476;2024-01-10T00:10:55;16.73;;;11.00;;
54835;SDS011;43486;43.574;1.476;2024-01-10T00:13:21;16.38;;;11.52;;
54835;SDS011;43486;43.574;1.476;2024-01-10T00:15:49;21.08;;;9.77;;
54835;SDS011;43486;43.574;1.476;2024-01-10T00:18:14;17.73;;;10.82;;
54835;SDS011;43486;43.574;1.476;2024-01-10T00:20:40;17.40;;;10.40;;
54835;SDS011;43486;43.574;1.476;2024-01-10T00:23:05;18.77;;;11.15;;
54835;SDS011;43486;43.574;1.476;2024-01-10T00:25:31;16.67;;;11.25;;
54835;SDS011;43486;43.574;1.476;2024-01-10T00:27:57;15.65;;;10.57;;
54835;SDS011;43486;43.574;1.476;2024-01-10T00:30:22;15.57;;;11.35;;
54835;SDS011;43486;43.574;1.476;2024-01-10T00:32:48;13.10;;;10.55;;
54835;SDS011;43486;43.574;1.476;2024-01-10T00:35:13;19.83;;;13.07;;
54835;SDS011;43486;43.574;1.476;2024-01-10T00:37:39;15.13;;;10.52;;
54835;SDS011;43486;43.574;1.476;2024-01-10T00:40:04;20.88;;;11.23;;
54835;SDS011;43486;43.574;1.476;2024-01-10T00:42:30;14.98;;;9.88;;
54835;SDS011;43486;43.574;1.476;2024-01-10T00:44:56;15.63;;;11.15;;
54835;SDS011;43486;43.574;1.476;2024-01-10T00:47:21;16.77;;;9.90;;
54835;SDS011;43486;43.574;1.476;2024-01-10T00:49:46;16.85;;;12.15;;
54835;SDS011;43486;43.574;1.476;2024-01-10T00:52:12;13.27;;;10.00;;
54835;SDS011;43486;43.574;1.476;2024-01-10T00:54:37;16.30;;;10.13;;
54835;SDS011;43486;43.574;1.476;2024-01-10T00:57:03;15.18;;;10.68;;
54835;SDS011;43486;43.574;1.476;2024-01-10T00:59:28;15.25;;;10.82;;
54835;SDS011;43486;43.574;1.476;2024-01-10T01:01:54;19.95;;;10.52;;
54835;SDS011;43486;43.574;1.476;2024-01-10T01:04:19;12.98;;;10.05;;
54835;SDS011;43486;43.574;1.476;2024-01-10T01:06:45;16.75;;;12.25;;
54835;SDS011;43486;43.574;1.476;2024-01-10T01:09:11;14.27;;;9.90;;
54835;SDS011;43486;43.574;1.476;2024-01-10T01:11:38;12.82;;;10.23;;
54835;SDS011;43486;43.574;1.476;2024-01-10T01:14:03;20.80;;;11.52;;
54835;SDS011;43486;43.574;1.476;2024-01-10T01:16:29;17.75;;;11.35;;
54835;SDS011;43486;43.574;1.476;2024-01-10T01:18:54;16.50;;;10.75;;
54835;SDS011;43486;43.574;1.476;2024-01-10T01:21:19;14.38;;;10.85;;
54835;SDS011;43486;43.574;1.476;2024-01-10T01:23:45;12.02;;;9.43;;
54835;SDS011;43486;43.574;1.476;2024-01-10T01:26:10;20.65;;;12.52;;
54835;SDS011;43486;43.574;1.476;2024-01-10T01:28:37;16.88;;;11.60;;
54835;SDS011;43486;43.574;1.476;2024-01-10T01:31:04;16.40;;;10.50;;
54835;SDS011;43486;43.574;1.476;2024-01-10T01:33:29;14.98;;;11.18;;
54835;SDS011;43486;43.574;1.476;2024-01-10T01:35:54;17.42;;;10.98;;
54835;SDS011;43486;43.574;1.476;2024-01-10T01:38:20;16.33;;;11.40;;
54835;SDS011;43486;43.574;1.476;2024-01-10T01:40:48;15.68;;;10.82;;
54835;SDS011;43486;43.574;1.476;2024-01-10T01:43:20;15.85;;;10.85;;
54835;SDS011;43486;43.574;1.476;2024-01-10T01:45:47;17.33;;;11.30;;
54835;SDS011;43486;43.574;1.476;2024-01-10T01:48:13;14.50;;;9.65;;
54835;SDS011;43486;43.574;1.476;2024-01-10T01:50:38;17.73;;;10.38;;
54835;SDS011;43486;43.574;1.476;2024-01-10T01:53:05;16.30;;;11.73;;
54835;SDS011;43486;43.574;1.476;2024-01-10T01:55:30;19.80;;;10.77;;
54835;SDS011;43486;43.574;1.476;2024-01-10T01:57:56;15.73;;;10.35;;
54835;SDS011;43486;43.574;1.476;2024-01-10T02:00:21;14.50;;;10.52;;
54835;SDS011;43486;43.574;1.476;2024-01-10T02:02:46;18.55;;;11.48;;
54835;SDS011;43486;43.574;1.476;2024-01-10T02:05:13;21.08;;;10.18;;
54835;SDS011;43486;43.574;1.476;2024-01-10T02:07:40;19.70;;;11.85;;
54835;SDS011;43486;43.574;1.476;2024-01-10T02:10:06;13.93;;;10.38;;
54835;SDS011;43486;43.574;1.476;2024-01-10T02:12:32;19.45;;;10.38;;
54835;SDS011;43486;43.574;1.476;2024-01-10T02:14:57;17.35;;;10.60;;
54835;SDS011;43486;43.574;1.476;2024-01-10T02:17:23;16.50;;;12.18;;
54835;SDS011;43486;43.574;1.476;2024-01-10T02:19:48;14.18;;;9.73;;
54835;SDS011;43486;43.574;1.476;2024-01-10T02:22:13;12.85;;;8.77;;
54835;SDS011;43486;43.574;1.476;2024-01-10T02:24:39;16.45;;;10.65;;
54835;SDS011;43486;43.574;1.476;2024-01-10T02:27:04;13.30;;;9.38;;
54835;SDS011;43486;43.574;1.476;2024-01-10T02:29:30;15.23;;;10.55;;
54835;SDS011;43486;43.574;1.476;2024-01-10T02:31:55;15.25;;;11.30;;
54835;SDS011;43486;43.574;1.476;2024-01-10T02:34:21;19.40;;;9.85;;
54835;SDS011;43486;43.574;1.476;2024-01-10T02:36:46;12.90;;;8.93;;
54835;SDS011;43486;43.574;1.476;2024-01-10T02:39:11;17.13;;;10.32;;
54835;SDS011;43486;43.574;1.476;2024-01-10T02:41:37;16.58;;;9.35;;
54835;SDS011;43486;43.574;1.476;2024-01-10T02:44:02;16.65;;;10.82;;
54835;SDS011;43486;43.574;1.476;2024-01-10T02:46:28;17.60;;;9.60;;
54835;SDS011;43486;43.574;1.476;2024-01-10T02:48:54;17.40;;;9.82;;
54835;SDS011;43486;43.574;1.476;2024-01-10T02:51:20;14.95;;;10.10;;
54835;SDS011;43486;43.574;1.476;2024-01-10T02:53:46;12.95;;;8.82;;
54835;SDS011;43486;43.574;1.476;2024-01-10T02:56:12;15.55;;;9.77;;
54835;SDS011;43486;43.574;1.476;2024-01-10T02:58:37;17.48;;;9.45;;
54835;SDS011;43486;43.574;1.476;2024-01-10T03:01:02;15.55;;;11.00;;
54835;SDS011;43486;43.574;1.476;2024-01-10T03:03:28;16.08;;;10.82;;
54835;SDS011;43486;43.574;1.476;2024-01-10T03:05:53;14.70;;;9.50;;
54835;SDS011;43486;43.574;1.476;2024-01-10T03:08:19;14.75;;;10.25;;
54835;SDS011;43486;43.574;1.476;2024-01-10T03:10:44;15.65;;;10.30;;
54835;SDS011;43486;43.574;1.476;2024-01-10T03:13:10;16.33;;;10.02;;
54835;SDS011;43486;43.574;1.476;2024-01-10T03:15:35;13.43;;;9.02;;
54835;SDS011;43486;43.574;1.476;2024-01-10T03:18:00;20.30;;;8.95;;
54835;SDS011;43486;43.574;1.476;2024-01-10T03:20:26;21.40;;;8.75;;
54835;SDS011;43486;43.574;1.476;2024-01-10T03:22:52;16.13;;;10.75;;
54835;SDS011;43486;43.574;1.476;2024-01-10T03:25:17;12.88;;;9.82;;
54835;SDS011;43486;43.574;1.476;2024-01-10T03:27:42;14.27;;;8.63;;
54835;SDS011;43486;43.574;1.476;2024-01-10T03:30:08;15.07;;;9.55;;
54835;SDS011;43486;43.574;1.476;2024-01-10T03:32:33;17.23;;;9.73;;
54835;SDS011;43486;43.574;1.476;2024-01-10T03:34:59;15.65;;;9.32;;
54835;SDS011;43486;43.574;1.476;2024-01-10T03:37:24;14.00;;;8.75;;
54835;SDS011;43486;43.574;1.476;2024-01-10T03:39:49;12.68;;;8.38;;
54835;SDS011;43486;43.574;1.476;2024-01-10T03:42:15;15.68;;;9.15;;
54835;SDS011;43486;43.574;1.476;2024-01-10T03:44:40;13.35;;;8.68;;
54835;SDS011;43486;43.574;1.476;2024-01-10T03:47:06;18.27;;;10.07;;
54835;SDS011;43486;43.574;1.476;2024-01-10T03:49:31;15.07;;;9.13;;
54835;SDS011;43486;43.574;1.476;2024-01-10T03:51:56;15.60;;;9.70;;
54835;SDS011;43486;43.574;1.476;2024-01-10T03:54:22;13.98;;;8.48;;
54835;SDS011;43486;43.574;1.476;2024-01-10T03:56:47;16.20;;;8.63;;
54835;SDS011;43486;43.574;1.476;2024-01-10T03:59:12;17.15;;;8.90;;
54835;SDS011;43486;43.574;1.476;2024-01-10T04:01:38;11.63;;;7.97;;
54835;SDS011;43486;43.574;1.476;2024-01-10T04:04:04;14.90;;;7.13;;
54835;SDS011;43486;43.574;1.476;2024-01-10T04:06:30;11.10;;;7.15;;
54835;SDS011;43486;43.574;1.476;2024-01-10T04:08:55;12.20;;;8.13;;
54835;SDS011;43486;43.574;1.476;2024-01-10T04:11:21;12.10;;;8.27;;
54835;SDS011;43486;43.574;1.476;2024-01-10T04:13:46;10.95;;;7.38;;
54835;SDS011;43486;43.574;1.476;2024-01-10T04:16:11;12.70;;;8.70;;
54835;SDS011;43486;43.574;1.476;2024-01-10T04:18:38;13.85;;;7.70;;
54835;SDS011;43486;43.574;1.476;2024-01-10T04:21:03;11.98;;;8.15;;
54835;SDS011;43486;43.574;1.476;2024-01-10T04:23:29;13.32;;;8.68;;
54835;SDS011;43486;43.574;1.476;2024-01-10T04:25:55;12.85;;;8.68;;
54835;SDS011;43486;43.574;1.476;2024-01-10T04:28:21;10.90;;;7.80;;
54835;SDS011;43486;43.574;1.476;2024-01-10T04:30:47;13.80;;;9.52;;
54835;SDS011;43486;43.574;1.476;2024-01-10T04:33:12;11.93;;;7.68;;
54835;SDS011;43486;43.574;1.476;2024-01-10T04:35:37;11.70;;;8.45;;
54835;SDS011;43486;43.574;1.476;2024-01-10T04:38:03;9.98;;;7.13;;
54835;SDS011;43486;43.574;1.476;2024-01-10T04:40:28;12.00;;;7.32;;
54835;SDS011;43486;43.574;1.476;2024-01-10T04:42:54;9.43;;;6.45;;
54835;SDS011;43486;43.574;1.476;2024-01-10T04:45:19;12.07;;;7.20;;
54835;SDS011;43486;43.574;1.476;2024-01-10T04:47:45;12.23;;;7.38;;
54835;SDS011;43486;43.574;1.476;2024-01-10T04:50:10;11.02;;;8.38;;
54835;SDS011;43486;43.574;1.476;2024-01-10T04:52:38;13.30;;;8.65;;
54835;SDS011;43486;43.574;1.476;2024-01-10T04:55:03;13.35;;;7.40;;
54835;SDS011;43486;43.574;1.476;2024-01-10T04:57:30;13.07;;;7.80;;
54835;SDS011;43486;43.574;1.476;2024-01-10T04:59:56;10.05;;;7.18;;
54835;SDS011;43486;43.574;1.476;2024-01-10T05:02:22;10.75;;;7.47;;
54835;SDS011;43486;43.574;1.476;2024-01-10T05:04:48;13.18;;;8.30;;
54835;SDS011;43486;43.574;1.476;2024-01-10T05:07:14;12.55;;;8.23;;
54835;SDS011;43486;43.574;1.476;2024-01-10T05:09:39;11.38;;;7.50;;
54835;SDS011;43486;43.574;1.476;2024-01-10T05:12:05;12.30;;;6.93;;
54835;SDS011;43486;43.574;1.476;2024-01-10T05:14:30;10.50;;;6.50;;
54835;SDS011;43486;43.574;1.476;2024-01-10T05:16:56;10.18;;;7.63;;
54835;SDS011;43486;43.574;1.476;2024-01-10T05:19:21;9.15;;;5.68;;
54835;SDS011;43486;43.574;1.476;2024-01-10T05:21:47;10.77;;;6.85;;
54835;SDS011;43486;43.574;1.476;2024-01-10T05:24:12;13.00;;;7.18;;
54835;SDS011;43486;43.574;1.476;2024-01-10T05:26:38;10.43;;;6.68;;
54835;SDS011;43486;43.574;1.476;2024-01-10T05:29:04;8.73;;;6.00;;
54835;SDS011;43486;43.574;1.476;2024-01-10T05:31:29;12.48;;;7.60;;
54835;SDS011;43486;43.574;1.476;2024-01-10T05:33:55;11.43;;;6.47;;
54835;SDS011;43486;43.574;1.476;2024-01-10T05:36:23;11.40;;;7.00;;
54835;SDS011;43486;43.574;1.476;2024-01-10T05:38:49;11.63;;;7.32;;
54835;SDS011;43486;43.574;1.476;2024-01-10T05:41:14;13.93;;;8.07;;
54835;SDS011;43486;43.574;1.476;2024-01-10T05:43:40;12.90;;;7.90;;
54835;SDS011;43486;43.574;1.476;2024-01-10T05:46:06;12.52;;;7.50;;
54835;SDS011;43486;43.574;1.476;2024-01-10T05:48:31;11.07;;;7.18;;
54835;SDS011;43486;43.574;1.476;2024-01-10T05:50:57;14.38;;;7.70;;
54835;SDS011;43486;43.574;1.476;2024-01-10T05:53:23;16.67;;;7.22;;
54835;SDS011;43486;43.574;1.476;2024-01-10T05:55:49;21.35;;;7.13;;
54835;SDS011;43486;43.574;1.476;2024-01-10T05:58:14;26.67;;;7.78;;
54835;SDS011;43486;43.574;1.476;2024-01-10T06:00:39;13.13;;;6.53;;
54835;SDS011;43486;43.574;1.476;2024-01-10T06:03:05;13.75;;;6.93;;
54835;SDS011;43486;43.574;1.476;2024-01-10T06:05:30;9.20;;;6.47;;
54835;SDS011;43486;43.574;1.476;2024-01-10T06:07:58;9.43;;;6.47;;
54835;SDS011;43486;43.574;1.476;2024-01-10T06:10:24;11.25;;;6.85;;
54835;SDS011;43486;43.574;1.476;2024-01-10T06:12:49;9.95;;;5.93;;
54835;SDS011;43486;43.574;1.476;2024-01-10T06:15:15;9.43;;;6.03;;
54835;SDS011;43486;43.574;1.476;2024-01-10T06:17:40;9.45;;;6.28;;
54835;SDS011;43486;43.574;1.476;2024-01-10T06:20:05;9.75;;;5.75;;
54835;SDS011;43486;43.574;1.476;2024-01-10T06:22:32;11.82;;;7.22;;
54835;SDS011;43486;43.574;1.476;2024-01-10T06:24:57;10.10;;;6.43;;
54835;SDS011;43486;43.574;1.476;2024-01-10T06:27:23;11.95;;;5.97;;
54835;SDS011;43486;43.574;1.476;2024-01-10T06:29:48;12.98;;;6.90;;
54835;SDS011;43486;43.574;1.476;2024-01-10T06:32:14;9.60;;;5.38;;
54835;SDS011;43486;43.574;1.476;2024-01-10T06:34:40;10.00;;;6.30;;
54835;SDS011;43486;43.574;1.476;2024-01-10T06:37:05;10.75;;;7.65;;
54835;SDS011;43486;43.574;1.476;2024-01-10T06:39:32;9.75;;;7.00;;
54835;SDS011;43486;43.574;1.476;2024-01-10T06:41:58;11.20;;;7.05;;
54835;SDS011;43486;43.574;1.476;2024-01-10T06:44:23;13.05;;;6.78;;
54835;SDS011;43486;43.574;1.476;2024-01-10T06:46:49;11.48;;;6.35;;
54835;SDS011;43486;43.574;1.476;2024-01-10T06:49:14;10.48;;;5.78;;
54835;SDS011;43486;43.574;1.476;2024-01-10T06:51:40;7.80;;;5.20;;
54835;SDS011;43486;43.574;1.476;2024-01-10T06:54:05;10.80;;;6.97;;
54835;SDS011;43486;43.574;1.476;2024-01-10T06:56:31;8.88;;;5.63;;
54835;SDS011;43486;43.574;1.476;2024-01-10T06:58:57;11.35;;;7.20;;
54835;SDS011;43486;43.574;1.476;2024-01-10T07:01:23;7.10;;;5.13;;
54835;SDS011;43486;43.574;1.476;2024-01-10T07:03:48;8.52;;;5.53;;
54835;SDS011;43486;43.574;1.476;2024-01-10T07:06:14;9.93;;;5.75;;
54835;SDS011;43486;43.574;1.476;2024-01-10T07:08:40;9.00;;;5.60;;
54835;SDS011;43486;43.574;1.476;2024-01-10T07:11:07;9.88;;;6.07;;
54835;SDS011;43486;43.574;1.476;2024-01-10T07:13:33;8.25;;;5.30;;
54835;SDS011;43486;43.574;1.476;2024-01-10T07:15:58;8.45;;;5.03;;
54835;SDS011;43486;43.574;1.476;2024-01-10T07:18:27;8.57;;;5.55;;
54835;SDS011;43486;43.574;1.476;2024-01-10T07:20:58;11.23;;;6.00;;
54835;SDS011;43486;43.574;1.476;2024-01-10T07:23:24;12.05;;;4.97;;
54835;SDS011;43486;43.574;1.476;2024-01-10T07:25:50;8.80;;;5.30;;
54835;SDS011;43486;43.574;1.476;2024-01-10T07:28:15;9.57;;;5.38;;
54835;SDS011;43486;43.574;1.476;2024-01-10T07:30:41;12.65;;;6.00;;
54835;SDS011;43486;43.574;1.476;2024-01-10T07:33:07;11.10;;;5.07;;
54835;SDS011;43486;43.574;1.476;2024-01-10T07:35:33;7.75;;;5.05;;
54835;SDS011;43486;43.574;1.476;2024-01-10T07:37:58;7.88;;;4.80;;
54835;SDS011;43486;43.574;1.476;2024-01-10T07:40:23;9.63;;;4.80;;
54835;SDS011;43486;43.574;1.476;2024-01-10T07:42:49;9.52;;;5.10;;
54835;SDS011;43486;43.574;1.476;2024-01-10T07:45:14;9.48;;;5.07;;
54835;SDS011;43486;43.574;1.476;2024-01-10T07:47:40;10.93;;;5.40;;
54835;SDS011;43486;43.574;1.476;2024-01-10T07:50:08;9.75;;;5.45;;
54835;SDS011;43486;43.574;1.476;2024-01-10T07:52:35;9.32;;;5.88;;
54835;SDS011;43486;43.574;1.476;2024-01-10T07:55:01;13.40;;;5.70;;
54835;SDS011;43486;43.574;1.476;2024-01-10T07:57:26;8.52;;;5.20;;
54835;SDS011;43486;43.574;1.476;2024-01-10T07:59:52;8.30;;;5.38;;
54835;SDS011;43486;43.574;1.476;2024-01-10T08:02:18;9.75;;;5.10;;
54835;SDS011;43486;43.574;1.476;2024-01-10T08:04:43;12.15;;;5.63;;
54835;SDS011;43486;43.574;1.476;2024-01-10T08:07:09;8.57;;;4.82;;
54835;SDS011;43486;43.574;1.476;2024-01-10T08:09:35;10.90;;;5.40;;
54835;SDS011;43486;43.574;1.476;2024-01-10T08:12:01;10.52;;;4.70;;
54835;SDS011;43486;43.574;1.476;2024-01-10T08:14:27;8.65;;;5.88;;
54835;SDS011;43486;43.574;1.476;2024-01-10T08:16:52;8.43;;;4.45;;
54835;SDS011;43486;43.574;1.476;2024-01-10T08:19:19;7.10;;;4.53;;
54835;SDS011;43486;43.574;1.476;2024-01-10T08:21:45;8.38;;;3.90;;
54835;SDS011;43486;43.574;1.476;2024-01-10T08:24:10;7.28;;;4.30;;
54835;SDS011;43486;43.574;1.476;2024-01-10T08:26:38;16.40;;;4.72;;
54835;SDS011;43486;43.574;1.476;2024-01-10T08:29:04;8.40;;;4.63;;
54835;SDS011;43486;43.574;1.476;2024-01-10T08:31:29;9.10;;;4.43;;
54835;SDS011;43486;43.574;1.476;2024-01-10T08:33:55;8.93;;;4.65;;
54835;SDS011;43486;43.574;1.476;2024-01-10T08:36:21;15.70;;;5.18;;
54835;SDS011;43486;43.574;1.476;2024-01-10T08:38:49;8.80;;;3.80;;
54835;SDS011;43486;43.574;1.476;2024-01-10T08:41:15;11.55;;;5.07;;
54835;SDS011;43486;43.574;1.476;2024-01-10T08:43:40;10.25;;;5.03;;
54835;SDS011;43486;43.574;1.476;2024-01-10T08:46:06;7.88;;;4.70;;
54835;SDS011;43486;43.574;1.476;2024-01-10T08:48:33;10.00;;;5.18;;
54835;SDS011;43486;43.574;1.476;2024-01-10T08:50:58;11.18;;;3.92;;
54835;SDS011;43486;43.574;1.476;2024-01-10T08:53:23;7.85;;;4.57;;
54835;SDS011;43486;43.574;1.476;2024-01-10T08:55:49;9.68;;;3.95;;
54835;SDS011;43486;43.574;1.476;2024-01-10T08:58:15;8.90;;;4.60;;
54835;SDS011;43486;43.574;1.476;2024-01-10T09:00:40;6.85;;;4.28;;
54835;SDS011;43486;43.574;1.476;2024-01-10T09:03:05;8.85;;;5.15;;
54835;SDS011;43486;43.574;1.476;2024-01-10T09:05:32;16.27;;;5.55;;
54835;SDS011;43486;43.574;1.476;2024-01-10T09:07:57;8.57;;;5.72;;
54835;SDS011;43486;43.574;1.476;2024-01-10T09:10:23;10.55;;;5.25;;
54835;SDS011;43486;43.574;1.476;2024-01-10T09:12:48;8.20;;;5.35;;
54835;SDS011;43486;43.574;1.476;2024-01-10T09:15:14;10.82;;;6.43;;
54835;SDS011;43486;43.574;1.476;2024-01-10T09:17:41;9.60;;;5.70;;
54835;SDS011;43486;43.574;1.476;2024-01-10T09:20:07;10.02;;;4.30;;
54835;SDS011;43486;43.574;1.476;2024-01-10T09:22:33;9.85;;;5.38;;
54835;SDS011;43486;43.574;1.476;2024-01-10T09:24:59;10.15;;;5.70;;
54835;SDS011;43486;43.574;1.476;2024-01-10T09:27:28;9.20;;;5.30;;
54835;SDS011;43486;43.574;1.476;2024-01-10T09:29:54;6.97;;;4.68;;
54835;SDS011;43486;43.574;1.476;2024-01-10T09:32:20;7.75;;;4.43;;
54835;SDS011;43486;43.574;1.476;2024-01-10T09:34:45;7.35;;;4.35;;
54835;SDS011;43486;43.574;1.476;2024-01-10T09:37:11;8.10;;;5.35;;
54835;SDS011;43486;43.574;1.476;2024-01-10T09:39:36;8.18;;;4.75;;
54835;SDS011;43486;43.574;1.476;2024-01-10T09:42:01;12.60;;;5.13;;
54835;SDS011;43486;43.574;1.476;2024-01-10T09:44:27;10.40;;;5.10;;
54835;SDS011;43486;43.574;1.476;2024-01-10T09:46:54;7.68;;;5.57;;
54835;SDS011;43486;43.574;1.476;2024-01-10T09:49:20;9.30;;;4.55;;
54835;SDS011;43486;43.574;1.476;2024-01-10T09:51:47;7.20;;;4.70;;
54835;SDS011;43486;43.574;1.476;2024-01-10T09:54:13;10.68;;;5.40;;
54835;SDS011;43486;43.574;1.476;2024-01-10T09:56:41;10.38;;;5.22;;
54835;SDS011;43486;43.574;1.476;2024-01-10T09:59:07;9.15;;;4.78;;
54835;SDS011;43486;43.574;1.476;2024-01-10T10:01:35;9.50;;;5.32;;
54835;SDS011;43486;43.574;1.476;2024-01-10T10:04:06;8.55;;;5.75;;
54835;SDS011;43486;43.574;1.476;2024-01-10T10:06:33;9.05;;;5.35;;
54835;SDS011;43486;43.574;1.476;2024-01-10T10:08:59;10.93;;;5.03;;
54835;SDS011;43486;43.574;1.476;2024-01-10T10:11:24;8.18;;;4.35;;
54835;SDS011;43486;43.574;1.476;2024-01-10T10:13:50;8.60;;;4.00;;
54835;SDS011;43486;43.574;1.476;2024-01-10T10:16:15;7.00;;;4.40;;
54835;SDS011;43486;43.574;1.476;2024-01-10T10:18:49;8.10;;;4.28;;
54835;SDS011;43486;43.574;1.476;2024-01-10T10:21:15;8.77;;;4.68;;
54835;SDS011;43486;43.574;1.476;2024-01-10T10:23:42;9.88;;;5.03;;
54835;SDS011;43486;43.574;1.476;2024-01-10T10:26:22;6.43;;;3.70;;
54835;SDS011;43486;43.574;1.476;2024-01-10T10:28:49;7.93;;;4.20;;
54835;SDS011;43486;43.574;1.476;2024-01-10T10:31:15;7.90;;;4.18;;
54835;SDS011;43486;43.574;1.476;2024-01-10T10:33:41;10.02;;;4.82;;
54835;SDS011;43486;43.574;1.476;2024-01-10T10:36:08;9.15;;;5.28;;
54835;SDS011;43486;43.574;1.476;2024-01-10T10:38:34;12.27;;;4.65;;
54835;SDS011;43486;43.574;1.476;2024-01-10T10:41:00;7.38;;;4.15;;
54835;SDS011;43486;43.574;1.476;2024-01-10T10:43:25;8.93;;;4.03;;
54835;SDS011;43486;43.574;1.476;2024-01-10T10:45:51;6.85;;;3.85;;
54835;SDS011;43486;43.574;1.476;2024-01-10T10:48:19;6.25;;;3.85;;
54835;SDS011;43486;43.574;1.476;2024-01-10T10:51:10;10.40;;;5.53;;
54835;SDS011;43486;43.574;1.476;2024-01-10T10:53:35;5.28;;;3.88;;
54835;SDS011;43486;43.574;1.476;2024-01-10T10:56:04;8.63;;;4.15;;
54835;SDS011;43486;43.574;1.476;2024-01-10T10:58:42;11.65;;;4.13;;
54835;SDS011;43486;43.574;1.476;2024-01-10T11:01:09;6.53;;;3.72;;
54835;SDS011;43486;43.574;1.476;2024-01-10T11:03:37;7.53;;;4.38;;
54835;SDS011;43486;43.574;1.476;2024-01-10T11:06:03;9.38;;;4.55;;
54835;SDS011;43486;43.574;1.476;2024-01-10T11:17:39;6.28;;;3.65;;
54835;SDS011;43486;43.574;1.476;2024-01-10T11:25:59;18.98;;;9.77;;
54835;SDS011;43486;43.574;1.476;2024-01-10T11:28:25;23.25;;;12.80;;
54835;SDS011;43486;43.574;1.476;2024-01-10T11:30:52;27.23;;;15.38;;
54835;SDS011;43486;43.574;1.476;2024-01-10T11:33:30;20.52;;;14.38;;
54835;SDS011;43486;43.574;1.476;2024-01-10T11:38:48;22.13;;;11.00;;
54835;SDS011;43486;43.574;1.476;2024-01-10T11:41:27;16.98;;;8.90;;
54835;SDS011;43486;43.574;1.476;2024-01-10T11:46:40;12.65;;;8.18;;
54835;SDS011;43486;43.574;1.476;2024-01-10T11:49:09;9.75;;;6.70;;
54835;SDS011;43486;43.574;1.476;2024-01-10T11:51:37;12.48;;;7.07;;
54835;SDS011;43486;43.574;1.476;2024-01-10T11:54:02;10.68;;;6.70;;
54835;SDS011;43486;43.574;1.476;2024-01-10T11:56:37;12.23;;;6.22;;
54835;SDS011;43486;43.574;1.476;2024-01-10T11:59:07;12.13;;;6.95;;
54835;SDS011;43486;43.574;1.476;2024-01-10T12:01:35;12.40;;;6.72;;
54835;SDS011;43486;43.574;1.476;2024-01-10T12:04:01;11.13;;;7.15;;
54835;SDS011;43486;43.574;1.476;2024-01-10T12:06:28;8.32;;;6.03;;
54835;SDS011;43486;43.574;1.476;2024-01-10T12:08:54;21.05;;;7.10;;
54835;SDS011;43486;43.574;1.476;2024-01-10T12:11:20;9.35;;;5.70;;
54835;SDS011;43486;43.574;1.476;2024-01-10T12:13:45;10.40;;;5.53;;
54835;SDS011;43486;43.574;1.476;2024-01-10T12:16:14;9.82;;;6.35;;
54835;SDS011;43486;43.574;1.476;2024-01-10T12:18:41;14.38;;;4.65;;
54835;SDS011;43486;43.574;1.476;2024-01-10T12:21:07;10.00;;;6.40;;
54835;SDS011;43486;43.574;1.476;2024-01-10T12:23:34;12.95;;;5.45;;
54835;SDS011;43486;43.574;1.476;2024-01-10T12:26:03;9.45;;;5.57;;
54835;SDS011;43486;43.574;1.476;2024-01-10T12:28:33;9.07;;;4.85;;
54835;SDS011;43486;43.574;1.476;2024-01-10T12:30:59;18.17;;;5.07;;
54835;SDS011;43486;43.574;1.476;2024-01-10T12:33:24;9.32;;;5.38;;
54835;SDS011;43486;43.574;1.476;2024-01-10T12:36:09;9.10;;;6.53;;
54835;SDS011;43486;43.574;1.476;2024-01-10T12:38:38;9.88;;;5.90;;
54835;SDS011;43486;43.574;1.476;2024-01-10T12:41:04;14.55;;;5.85;;
54835;SDS011;43486;43.574;1.476;2024-01-10T12:43:30;12.27;;;6.20;;
54835;SDS011;43486;43.574;1.476;2024-01-10T12:46:02;10.35;;;4.95;;
54835;SDS011;43486;43.574;1.476;2024-01-10T12:48:31;9.70;;;4.80;;
54835;SDS011;43486;43.574;1.476;2024-01-10T12:50:58;7.93;;;5.18;;
54835;SDS011;43486;43.574;1.476;2024-01-10T12:53:30;12.25;;;6.07;;
54835;SDS011;43486;43.574;1.476;2024-01-10T12:56:00;11.15;;;6.28;;
54835;SDS011;43486;43.574;1.476;2024-01-10T12:58:25;10.95;;;7.05;;
54835;SDS011;43486;43.574;1.476;2024-01-10T13:00:50;12.00;;;6.40;;
54835;SDS011;43486;43.574;1.476;2024-01-10T13:03:16;11.60;;;6.40;;
54835;SDS011;43486;43.574;1.476;2024-01-10T13:05:41;17.48;;;6.43;;
54835;SDS011;43486;43.574;1.476;2024-01-10T13:08:08;16.00;;;6.93;;
54835;SDS011;43486;43.574;1.476;2024-01-10T13:10:35;10.57;;;5.57;;
54835;SDS011;43486;43.574;1.476;2024-01-10T13:13:00;9.70;;;5.72;;
54835;SDS011;43486;43.574;1.476;2024-01-10T13:15:26;8.48;;;4.47;;
54835;SDS011;43486;43.574;1.476;2024-01-10T13:17:51;10.15;;;6.53;;
54835;SDS011;43486;43.574;1.476;2024-01-10T13:20:16;16.27;;;5.28;;
54835;SDS011;43486;43.574;1.476;2024-01-10T13:22:42;15.32;;;5.82;;
54835;SDS011;43486;43.574;1.476;2024-01-10T13:25:08;13.60;;;5.68;;
54835;SDS011;43486;43.574;1.476;2024-01-10T13:27:33;9.95;;;6.05;;
54835;SDS011;43486;43.574;1.476;2024-01-10T13:29:59;8.88;;;5.75;;
54835;SDS011;43486;43.574;1.476;2024-01-10T13:32:24;9.30;;;5.55;;
54835;SDS011;43486;43.574;1.476;2024-01-10T13:34:51;9.88;;;4.93;;
54835;SDS011;43486;43.574;1.476;2024-01-10T13:37:16;12.80;;;6.45;;
54835;SDS011;43486;43.574;1.476;2024-01-10T13:39:41;10.65;;;5.60;;
54835;SDS011;43486;43.574;1.476;2024-01-10T13:42:06;9.23;;;5.57;;
54835;SDS011;43486;43.574;1.476;2024-01-10T13:44:35;9.43;;;5.88;;
54835;SDS011;43486;43.574;1.476;2024-01-10T13:47:01;8.75;;;5.55;;
54835;SDS011;43486;43.574;1.476;2024-01-10T13:49:27;10.25;;;5.68;;
54835;SDS011;43486;43.574;1.476;2024-01-10T13:51:53;10.02;;;5.88;;
54835;SDS011;43486;43.574;1.476;2024-01-10T13:54:18;12.60;;;6.43;;
54835;SDS011;43486;43.574;1.476;2024-01-10T13:56:44;9.93;;;5.78;;
54835;SDS011;43486;43.574;1.476;2024-01-10T13:59:09;10.98;;;6.38;;
54835;SDS011;43486;43.574;1.476;2024-01-10T14:01:34;9.07;;;5.72;;
54835;SDS011;43486;43.574;1.476;2024-01-10T14:04:00;8.20;;;4.70;;
54835;SDS011;43486;43.574;1.476;2024-01-10T14:06:25;8.23;;;4.88;;
54835;SDS011;43486;43.574;1.476;2024-01-10T14:08:51;10.18;;;5.57;;
54835;SDS011;43486;43.574;1.476;2024-01-10T14:11:18;8.10;;;5.22;;
54835;SDS011;43486;43.574;1.476;2024-01-10T14:13:44;8.60;;;5.55;;
54835;SDS011;43486;43.574;1.476;2024-01-10T14:16:10;9.95;;;6.32;;
54835;SDS011;43486;43.574;1.476;2024-01-10T14:18:36;10.90;;;5.82;;
54835;SDS011;43486;43.574;1.476;2024-01-10T14:21:01;9.63;;;5.60;;
54835;SDS011;43486;43.574;1.476;2024-01-10T14:23:27;12.35;;;5.95;;
54835;SDS011;43486;43.574;1.476;2024-01-10T14:25:52;11.00;;;5.10;;
54835;SDS011;43486;43.574;1.476;2024-01-10T14:28:18;8.75;;;6.15;;
54835;SDS011;43486;43.574;1.476;2024-01-10T14:30:45;11.45;;;5.95;;
54835;SDS011;43486;43.574;1.476;2024-01-10T14:33:11;10.05;;;5.97;;
54835;SDS011;43486;43.574;1.476;2024-01-10T14:35:38;8.52;;;4.90;;
54835;SDS011;43486;43.574;1.476;2024-01-10T14:38:05;15.65;;;5.35;;
54835;SDS011;43486;43.574;1.476;2024-01-10T14:40:30;9.10;;;5.82;;
54835;SDS011;43486;43.574;1.476;2024-01-10T14:42:56;9.52;;;5.75;;
54835;SDS011;43486;43.574;1.476;2024-01-10T14:45:21;8.02;;;4.90;;
54835;SDS011;43486;43.574;1.476;2024-01-10T14:47:47;8.20;;;5.10;;
54835;SDS011;43486;43.574;1.476;2024-01-10T14:50:14;8.80;;;5.47;;